Time;durP1;ratioP1;P1;durP2;ratioP2;P2;SDS_P1;SDS_P2;PMS_P1;PMS_P2;Temp;Humidity;BMP_temperature;BMP_pressure;BME280_temperature;BME280_humidity;BME280_pressure;Samples;Min_cycle;Max_cycle;Signal;HPM_P1;HPM_P2
2022/09/21 00:02:19;;;;;;;2.87;2.00;;;6.40;99.90;;;;;;8382922;28;20259;-68
2022/09/21 00:06:22;;;;;;;2.60;1.80;;;6.30;99.90;;;;;;8385275;28;20189;-68
2022/09/21 00:10:22;;;;;;;4.67;2.50;;;6.30;99.90;;;;;;8382634;28;20186;-68
2022/09/21 00:14:24;;;;;;;2.83;1.93;;;6.20;99.90;;;;;;8384377;28;20224;-68
2022/09/21 00:18:25;;;;;;;2.50;1.80;;;6.10;99.90;;;;;;8379960;28;20192;-69
2022/09/21 00:22:26;;;;;;;4.53;2.33;;;6.10;99.90;;;;;;8379379;28;20178;-68
2022/09/21 00:26:28;;;;;;;3.30;2.30;;;6.10;99.90;;;;;;8382086;28;20191;-68
2022/09/21 00:30:29;;;;;;;2.73;2.07;;;6.10;99.90;;;;;;8382119;28;20208;-68
2022/09/21 00:34:31;;;;;;;2.50;2.30;;;6.00;99.90;;;;;;8380291;28;20224;-68
2022/09/21 00:38:32;;;;;;;2.73;2.33;;;6.00;99.90;;;;;;8380518;28;20243;-68
2022/09/21 00:42:34;;;;;;;3.00;1.90;;;6.00;99.90;;;;;;8373461;28;20186;-69
2022/09/21 00:46:38;;;;;;;4.70;2.33;;;5.90;99.90;;;;;;8383549;28;20182;-68
2022/09/21 00:50:45;;;;;;;4.07;2.80;;;5.90;99.90;;;;;;8379679;28;20223;-68
2022/09/21 00:54:48;;;;;;;3.37;2.43;;;5.90;99.90;;;;;;8397243;28;20313;-69
2022/09/21 00:58:51;;;;;;;3.20;2.30;;;5.90;99.90;;;;;;8381558;28;20185;-71
2022/09/21 01:02:53;;;;;;;3.50;2.33;;;5.80;99.90;;;;;;8379807;28;20219;-68
2022/09/21 01:06:57;;;;;;;5.10;2.50;;;5.80;99.90;;;;;;8381032;28;20248;-68
2022/09/21 01:11:19;;;;;;;3.30;2.80;;;5.80;99.90;;;;;;8382237;28;20307;-69
2022/09/21 01:15:41;;;;;;;3.50;2.77;;;5.80;99.90;;;;;;8382148;28;20208;-68
2022/09/21 01:20:19;;;;;;;5.87;2.53;;;5.80;99.90;;;;;;8381496;28;20230;-68
2022/09/21 01:24:34;;;;;;;4.77;2.50;;;5.80;99.90;;;;;;8381354;28;20196;-68
2022/09/21 01:29:06;;;;;;;2.60;2.37;;;5.80;99.90;;;;;;8396030;28;20290;-69
2022/09/21 01:33:20;;;;;;;2.33;2.10;;;5.70;99.90;;;;;;8387437;28;20276;-68
2022/09/21 01:37:44;;;;;;;4.00;2.40;;;5.60;99.90;;;;;;8380936;28;20428;-68
2022/09/21 01:41:47;;;;;;;4.50;2.30;;;5.60;99.90;;;;;;8379066;28;20224;-68
2022/09/21 01:45:51;;;;;;;5.70;2.63;;;5.50;99.90;;;;;;8382124;28;20220;-69
2022/09/21 01:49:54;;;;;;;3.50;2.40;;;5.50;99.90;;;;;;8385256;28;20177;-69
2022/09/21 01:54:10;;;;;;;4.40;2.50;;;5.50;99.90;;;;;;8382606;28;20216;-68
2022/09/21 01:58:16;;;;;;;6.03;2.70;;;5.50;99.90;;;;;;8384181;28;20186;-68
2022/09/21 02:02:46;;;;;;;6.37;2.80;;;5.50;99.90;;;;;;8383455;28;20185;-69
2022/09/21 02:06:49;;;;;;;7.03;3.03;;;5.50;99.90;;;;;;8382774;28;20260;-68
2022/09/21 02:10:51;;;;;;;8.57;2.97;;;5.40;99.90;;;;;;8382484;28;20177;-68
2022/09/21 02:14:54;;;;;;;6.70;2.77;;;5.50;99.90;;;;;;8384584;28;20247;-69
2022/09/21 02:18:56;;;;;;;3.60;2.70;;;5.40;99.90;;;;;;8383156;28;20189;-69
2022/09/21 02:23:25;;;;;;;4.93;3.10;;;5.40;99.90;;;;;;8381599;28;20177;-68
2022/09/21 02:27:28;;;;;;;5.10;2.70;;;5.40;99.90;;;;;;8381369;28;20208;-69
2022/09/21 02:31:38;;;;;;;3.53;2.50;;;5.30;99.90;;;;;;8381779;28;20181;-69
2022/09/21 02:35:47;;;;;;;5.13;3.10;;;5.30;99.90;;;;;;8381430;28;20180;-69
2022/09/21 02:40:03;;;;;;;5.57;3.03;;;5.40;99.90;;;;;;8383038;28;20260;-69
2022/09/21 02:44:14;;;;;;;4.80;2.67;;;5.40;99.90;;;;;;8384284;28;20193;-69
2022/09/21 02:48:33;;;;;;;6.13;3.30;;;5.40;99.90;;;;;;8371977;28;20181;-68
2022/09/21 02:52:36;;;;;;;5.50;3.30;;;5.50;99.90;;;;;;8384491;28;20212;-69
2022/09/21 02:56:40;;;;;;;8.23;3.27;;;5.60;99.90;;;;;;8391063;28;20181;-69
2022/09/21 03:00:41;;;;;;;4.43;3.53;;;5.60;99.90;;;;;;8386067;28;20217;-69
2022/09/21 03:04:48;;;;;;;4.37;3.60;;;5.60;99.90;;;;;;8383859;28;20196;-69
2022/09/21 03:08:49;;;;;;;5.17;3.63;;;5.70;99.90;;;;;;8384699;28;20189;-68
2022/09/21 03:12:50;;;;;;;6.90;4.40;;;5.80;99.90;;;;;;8384142;28;20232;-69
2022/09/21 03:16:52;;;;;;;5.33;3.53;;;5.80;99.90;;;;;;8385429;28;20248;-69
2022/09/21 03:20:53;;;;;;;4.47;3.43;;;5.80;99.90;;;;;;8381525;28;20271;-69
2022/09/21 03:24:56;;;;;;;4.50;3.30;;;5.80;99.90;;;;;;8380162;28;20189;-69
2022/09/21 03:28:57;;;;;;;5.40;3.67;;;5.80;99.90;;;;;;8386458;28;20263;-68
2022/09/21 03:32:58;;;;;;;7.07;4.50;;;5.80;99.90;;;;;;8381197;28;20327;-68
2022/09/21 03:36:59;;;;;;;7.77;4.07;;;5.80;99.90;;;;;;8380140;28;20363;-69
2022/09/21 03:41:00;;;;;;;6.00;3.70;;;5.80;99.90;;;;;;8379467;28;20196;-69
2022/09/21 03:45:01;;;;;;;4.93;3.80;;;5.80;99.90;;;;;;8378845;28;20208;-69
2022/09/21 03:49:02;;;;;;;5.70;4.10;;;5.90;99.90;;;;;;8383132;28;20200;-69
2022/09/21 03:53:03;;;;;;;8.13;4.17;;;5.80;99.90;;;;;;8380834;28;20201;-68
2022/09/21 03:57:04;;;;;;;7.47;4.33;;;5.90;99.90;;;;;;8377043;28;20185;-69
2022/09/21 04:01:04;;;;;;;6.03;4.23;;;6.00;99.90;;;;;;8371119;28;20229;-68
2022/09/21 04:05:13;;;;;;;6.87;4.20;;;6.00;99.90;;;;;;8379132;28;20215;-69
2022/09/21 04:09:14;;;;;;;5.03;4.30;;;6.10;99.90;;;;;;8382649;28;20201;-69
2022/09/21 04:13:14;;;;;;;6.20;4.30;;;6.10;99.90;;;;;;8369543;28;20256;-69
2022/09/21 04:17:15;;;;;;;6.33;4.80;;;6.10;99.90;;;;;;8381723;28;20192;-69
2022/09/21 04:21:17;;;;;;;6.30;4.80;;;6.20;99.90;;;;;;8382209;28;20190;-69
2022/09/21 04:25:19;;;;;;;7.20;5.17;;;6.20;99.90;;;;;;8376190;28;20192;-69
2022/09/21 04:29:20;;;;;;;7.70;4.10;;;6.20;99.90;;;;;;8379723;28;20177;-69
2022/09/21 04:33:23;;;;;;;8.63;4.90;;;6.20;99.90;;;;;;8384384;28;20216;-68
2022/09/21 04:37:24;;;;;;;8.37;5.10;;;6.20;99.90;;;;;;8367544;28;20190;-69
2022/09/21 04:41:26;;;;;;;9.53;4.97;;;6.30;99.90;;;;;;8382729;28;20204;-68
2022/09/21 04:45:26;;;;;;;6.40;4.67;;;6.30;99.90;;;;;;8379609;28;20197;-69
2022/09/21 04:49:27;;;;;;;7.00;5.20;;;6.30;99.90;;;;;;8380775;28;20192;-72
2022/09/21 04:53:29;;;;;;;7.93;4.80;;;6.40;99.90;;;;;;8379673;28;20293;-69
2022/09/21 04:57:30;;;;;;;8.93;5.70;;;6.50;99.90;;;;;;8382487;28;20181;-69
2022/09/21 05:01:31;;;;;;;9.87;6.10;;;6.50;99.90;;;;;;8381876;28;20276;-68
2022/09/21 05:05:32;;;;;;;8.30;5.80;;;6.60;99.90;;;;;;8383200;28;20181;-69
2022/09/21 05:13:52;;;;;;;8.17;5.73;;;6.70;99.90;;;;;;8386434;28;20243;-70
2022/09/21 05:17:52;;;;;;;5.93;5.17;;;6.80;99.90;;;;;;8385514;28;20212;-69
2022/09/21 05:21:53;;;;;;;6.20;5.13;;;6.80;99.90;;;;;;8384695;28;20181;-69
2022/09/21 05:25:55;;;;;;;8.47;5.60;;;6.90;99.90;;;;;;8386669;28;20216;-70
2022/09/21 05:29:56;;;;;;;6.57;5.20;;;7.00;99.90;;;;;;8385528;28;20211;-70
2022/09/21 05:34:34;;;;;;;7.57;5.63;;;7.10;99.90;;;;;;8386494;28;20291;-70
2022/09/21 05:38:36;;;;;;;9.87;6.07;;;7.20;99.90;;;;;;8387352;28;20259;-69
2022/09/21 05:42:37;;;;;;;9.33;6.13;;;7.30;99.90;;;;;;8387139;28;20181;-70
2022/09/21 05:46:48;;;;;;;8.03;6.00;;;7.40;99.90;;;;;;8386098;28;20210;-70
2022/09/21 05:51:02;;;;;;;11.30;7.43;;;7.60;99.90;;;;;;8388616;28;20186;-70
2022/09/21 05:55:28;;;;;;;8.53;6.07;;;7.70;99.90;;;;;;8385054;28;20240;-69
2022/09/21 05:59:57;;;;;;;9.97;6.77;;;7.70;99.90;;;;;;8381017;28;20334;-69
2022/09/21 06:03:58;;;;;;;9.40;6.87;;;7.80;99.90;;;;;;8385138;28;20185;-69
2022/09/21 06:07:59;;;;;;;9.40;6.13;;;7.80;99.90;;;;;;8384445;28;20193;-69
2022/09/21 06:12:00;;;;;;;8.30;6.70;;;7.80;99.90;;;;;;8385303;28;20228;-69
2022/09/21 06:16:02;;;;;;;7.97;5.97;;;7.90;99.90;;;;;;8381562;28;20213;-69
2022/09/21 06:20:05;;;;;;;9.70;6.87;;;8.00;99.90;;;;;;8384810;28;20217;-69
2022/09/21 06:24:09;;;;;;;9.10;7.03;;;8.00;99.90;;;;;;8383358;28;20209;-69
2022/09/21 06:28:11;;;;;;;8.50;7.07;;;8.10;99.90;;;;;;8377314;28;20189;-70
2022/09/21 06:32:12;;;;;;;9.97;7.37;;;8.10;99.90;;;;;;8396380;28;20209;-70
2022/09/21 06:36:14;;;;;;;14.93;8.93;;;8.20;99.90;;;;;;8385134;28;20185;-68
2022/09/21 06:40:14;;;;;;;10.90;7.70;;;8.30;99.90;;;;;;8383863;28;20196;-70
2022/09/21 06:44:15;;;;;;;8.63;6.93;;;8.40;99.90;;;;;;8382296;28;20213;-69
2022/09/21 06:48:16;;;;;;;8.80;7.43;;;8.40;99.90;;;;;;8383716;28;20185;-67
2022/09/21 06:52:17;;;;;;;10.73;6.93;;;8.50;99.90;;;;;;8384551;28;20239;-68
2022/09/21 06:56:18;;;;;;;8.57;6.80;;;8.70;99.90;;;;;;8374822;28;20288;-68
2022/09/21 07:00:19;;;;;;;7.33;6.50;;;8.80;99.90;;;;;;8383484;28;20452;-68
2022/09/21 07:04:23;;;;;;;10.10;6.10;;;8.90;99.90;;;;;;8382014;28;20226;-69
2022/09/21 07:08:25;;;;;;;8.67;5.67;;;9.00;99.90;;;;;;8396571;28;20182;-69
2022/09/21 07:12:27;;;;;;;8.03;5.03;;;9.00;99.90;;;;;;8382326;28;20218;-69
2022/09/21 07:16:28;;;;;;;7.33;5.07;;;9.20;99.90;;;;;;8376173;28;20205;-69
2022/09/21 07:20:29;;;;;;;5.37;4.87;;;9.30;99.90;;;;;;8386312;28;20186;-69
2022/09/21 07:24:30;;;;;;;5.00;4.30;;;9.50;99.90;;;;;;8379752;28;20212;-69
2022/09/21 07:28:31;;;;;;;5.17;4.63;;;9.50;99.90;;;;;;8381878;28;20232;-69
2022/09/21 07:32:32;;;;;;;7.03;4.73;;;9.60;99.90;;;;;;8382577;28;20207;-70
2022/09/21 07:36:33;;;;;;;5.47;4.03;;;9.60;99.90;;;;;;8383539;28;20204;-69
2022/09/21 07:40:34;;;;;;;5.10;4.13;;;9.70;99.90;;;;;;8382733;28;20220;-69
2022/09/21 07:44:35;;;;;;;4.83;4.07;;;9.80;99.90;;;;;;8381363;28;20188;-69
2022/09/21 07:48:36;;;;;;;5.63;4.77;;;10.00;99.90;;;;;;8379524;28;20199;-69
2022/09/21 07:52:37;;;;;;;4.30;3.77;;;10.10;99.90;;;;;;8380392;28;20208;-69
2022/09/21 07:56:38;;;;;;;5.00;4.27;;;10.20;99.90;;;;;;8381638;28;20592;-69
2022/09/21 08:00:39;;;;;;;4.80;3.80;;;10.50;99.90;;;;;;8382103;28;20212;-69
2022/09/21 08:04:40;;;;;;;5.30;4.13;;;10.50;99.90;;;;;;8373265;28;20184;-68
2022/09/21 08:08:40;;;;;;;4.33;3.70;;;10.40;99.90;;;;;;8379705;28;20183;-69
2022/09/21 08:12:43;;;;;;;6.17;3.70;;;10.30;99.90;;;;;;8370260;28;20337;-68
2022/09/21 08:16:45;;;;;;;6.13;4.67;;;10.30;99.90;;;;;;8383178;28;20263;-69
2022/09/21 08:20:53;;;;;;;4.63;3.83;;;10.40;99.90;;;;;;8383251;28;20172;-68
2022/09/21 08:24:54;;;;;;;5.37;3.93;;;10.50;99.90;;;;;;8379093;28;20184;-69
2022/09/21 08:28:57;;;;;;;4.73;3.60;;;10.60;99.90;;;;;;8383364;28;20192;-69
2022/09/21 08:32:58;;;;;;;5.90;3.10;;;10.70;99.90;;;;;;8394934;28;20286;-69
2022/09/21 08:36:59;;;;;;;5.47;3.13;;;11.00;99.90;;;;;;8380784;28;20181;-69
2022/09/21 08:41:01;;;;;;;4.07;2.67;;;11.50;99.90;;;;;;8382400;28;20269;-69
2022/09/21 08:45:08;;;;;;;3.23;2.37;;;11.80;99.90;;;;;;8380573;28;20270;-69
2022/09/21 08:49:25;;;;;;;4.77;2.07;;;12.20;99.90;;;;;;8397058;28;20181;-68
2022/09/21 08:53:40;;;;;;;5.47;2.30;;;12.40;99.90;;;;;;8376482;28;20197;-69
2022/09/21 08:57:41;;;;;;;3.70;1.93;;;12.70;99.90;;;;;;8377780;28;20181;-70
2022/09/21 09:02:15;;;;;;;2.07;1.80;;;13.20;99.90;;;;;;8381883;28;20192;-69
2022/09/21 09:06:24;;;;;;;2.70;1.70;;;13.50;99.90;;;;;;8379044;28;20227;-68
2022/09/21 09:10:37;;;;;;;3.33;1.80;;;13.40;99.90;;;;;;8380918;28;20196;-69
2022/09/21 09:15:00;;;;;;;3.77;1.97;;;13.30;99.90;;;;;;8378322;28;20209;-69
2022/09/21 09:19:29;;;;;;;2.10;1.90;;;13.10;99.90;;;;;;8380219;28;20296;-69
2022/09/21 09:23:39;;;;;;;2.43;2.10;;;13.00;99.90;;;;;;8379465;28;20467;-69
2022/09/21 09:27:43;;;;;;;2.57;1.87;;;13.20;99.90;;;;;;8379854;28;20186;-69
2022/09/21 09:31:45;;;;;;;2.50;2.30;;;13.00;99.90;;;;;;8377693;28;20199;-69
2022/09/21 09:35:59;;;;;;;4.27;2.30;;;12.90;99.90;;;;;;8376073;28;20588;-70
2022/09/21 09:40:00;;;;;;;5.03;2.13;;;13.10;99.90;;;;;;8375282;28;20209;-69
2022/09/21 09:44:38;;;;;;;2.93;1.73;;;13.20;99.90;;;;;;8392342;28;20193;-69
2022/09/21 09:49:07;;;;;;;3.40;2.00;;;13.20;99.90;;;;;;8378971;28;20182;-70
2022/09/21 09:53:15;;;;;;;4.17;2.17;;;13.50;99.90;;;;;;8379291;28;20211;-69
2022/09/21 09:57:26;;;;;;;2.40;1.57;;;13.50;99.90;;;;;;8386031;28;20173;-69
2022/09/21 10:01:56;;;;;;;2.57;1.73;;;13.70;99.90;;;;;;8386323;28;20184;-70
2022/09/21 10:05:57;;;;;;;4.00;1.50;;;13.90;99.90;;;;;;8384113;28;20170;-70
2022/09/21 10:09:58;;;;;;;2.87;1.40;;;14.00;99.90;;;;;;8386293;28;20177;-69
2022/09/21 10:14:08;;;;;;;2.73;1.90;;;13.90;99.90;;;;;;8382687;28;20231;-69
2022/09/21 10:18:24;;;;;;;3.83;1.63;;;13.90;99.90;;;;;;8380342;28;20173;-69
2022/09/21 10:22:28;;;;;;;3.00;1.17;;;13.90;99.90;;;;;;8381135;28;20276;-69
2022/09/21 10:26:49;;;;;;;1.50;1.20;;;13.80;99.90;;;;;;8376696;28;20187;-69
2022/09/21 10:31:05;;;;;;;2.13;1.10;;;13.90;99.90;;;;;;8372441;28;20185;-70
2022/09/21 10:35:06;;;;;;;2.73;1.43;;;14.10;76.20;;;;;;8381573;28;20296;-70
2022/09/21 10:39:29;;;;;;;1.33;1.00;;;14.10;1.00;;;;;;8385590;28;20180;-70
2022/09/21 10:43:35;;;;;;;2.40;1.03;;;14.10;99.90;;;;;;8383786;28;20185;-70
2022/09/21 10:47:39;;;;;;;2.10;1.07;;;14.30;99.90;;;;;;8385221;28;20185;-71
2022/09/21 10:51:45;;;;;;;3.53;1.90;;;13.90;99.90;;;;;;8383322;28;20182;-69
2022/09/21 10:56:07;;;;;;;2.50;1.07;;;14.00;99.90;;;;;;8376119;28;20188;-70
2022/09/21 11:00:23;;;;;;;1.73;1.20;;;14.50;99.90;;;;;;8386797;28;20238;-69
2022/09/21 11:04:43;;;;;;;1.10;0.90;;;14.80;99.90;;;;;;8379677;28;20181;-69
2022/09/21 11:09:04;;;;;;;1.40;0.90;;;14.60;99.90;;;;;;8382698;28;20186;-69
2022/09/21 11:13:19;;;;;;;1.27;1.00;;;14.20;99.90;;;;;;8383803;28;20221;-69
2022/09/21 11:17:37;;;;;;;1.73;1.10;;;14.00;99.90;;;;;;8382211;28;20269;-70
2022/09/21 11:21:54;;;;;;;1.20;0.90;;;14.00;99.90;;;;;;8400110;28;20173;-70
2022/09/21 11:26:02;;;;;;;1.93;0.97;;;14.10;99.90;;;;;;8382811;28;20184;-69
2022/09/21 11:30:17;;;;;;;2.43;1.07;;;14.30;99.90;;;;;;8385609;28;20189;-69
2022/09/21 11:34:43;;;;;;;2.03;1.00;;;14.50;99.90;;;;;;8379171;28;20216;-69
2022/09/21 11:39:18;;;;;;;1.97;1.03;;;14.80;99.90;;;;;;8386982;28;20254;-70
2022/09/21 11:43:40;;;;;;;1.37;1.13;;;14.80;99.90;;;;;;8369134;28;20189;-69
2022/09/21 11:48:07;;;;;;;2.33;0.97;;;14.90;99.90;;;;;;8380901;28;20185;-69
2022/09/21 11:52:31;;;;;;;2.53;1.43;;;15.10;99.90;;;;;;8385538;28;20220;-71
2022/09/21 11:56:39;;;;;;;2.17;1.60;;;15.20;99.90;;;;;;8376949;28;20184;-71
2022/09/21 12:00:58;;;;;;;2.03;1.27;;;15.00;99.90;;;;;;8379624;28;20284;-70
2022/09/21 12:05:20;;;;;;;1.10;0.93;;;14.90;99.90;;;;;;8375064;28;20255;-70
2022/09/21 12:09:30;;;;;;;2.80;0.90;;;15.20;99.90;;;;;;8373295;28;20185;-70
2022/09/21 12:13:49;;;;;;;2.03;0.90;;;15.40;99.90;;;;;;8371797;28;20217;-69
2022/09/21 12:18:01;;;;;;;1.00;0.80;;;15.70;99.90;;;;;;8383423;28;20272;-69
2022/09/21 12:22:28;;;;;;;1.53;0.80;;;16.00;99.90;;;;;;8379483;28;20193;-70
2022/09/21 12:26:40;;;;;;;1.10;0.90;;;16.50;99.90;;;;;;8382043;28;20196;-70
2022/09/21 12:30:44;;;;;;;1.10;0.87;;;16.50;99.90;;;;;;8371895;28;20189;-70
2022/09/21 12:35:11;;;;;;;1.17;1.03;;;16.40;99.90;;;;;;8381366;28;20215;-68
2022/09/21 12:39:38;;;;;;;1.27;0.70;;;15.80;72.10;;;;;;8379576;28;20213;-69
2022/09/21 12:43:51;;;;;;;1.03;0.80;;;15.60;99.90;;;;;;8394072;28;20239;-69
2022/09/21 12:48:01;;;;;;;1.60;1.03;;;15.70;99.90;;;;;;8376257;28;20196;-69
2022/09/21 12:52:05;;;;;;;2.23;0.80;;;15.50;99.90;;;;;;8382376;28;20299;-70
2022/09/21 12:56:21;;;;;;;0.77;0.60;;;15.60;99.90;;;;;;8382330;28;20488;-70
2022/09/21 13:00:25;;;;;;;1.30;0.83;;;15.90;99.90;;;;;;8386558;28;20177;-70
2022/09/21 13:05:10;;;;;;;1.83;1.10;;;15.60;99.90;;;;;;8380041;28;20185;-69
2022/09/21 13:09:16;;;;;;;2.07;1.23;;;14.60;99.90;;;;;;8377589;28;20186;-69
2022/09/21 13:13:23;;;;;;;2.37;1.40;;;14.00;1.00;;;;;;8378872;28;20255;-70
2022/09/21 13:17:29;;;;;;;1.80;1.10;;;13.70;99.90;;;;;;8382025;28;20185;-69
2022/09/21 13:21:32;;;;;;;1.30;1.00;;;13.70;99.90;;;;;;8380859;28;20174;-70
2022/09/21 13:25:36;;;;;;;1.13;0.93;;;13.80;99.90;;;;;;8381594;28;20185;-69
2022/09/21 13:29:39;;;;;;;2.07;1.20;;;13.90;99.90;;;;;;8400381;28;20181;-69
2022/09/21 13:33:40;;;;;;;3.23;1.20;;;14.10;1.00;;;;;;8385526;28;20221;-69
2022/09/21 13:37:40;;;;;;;2.03;1.60;;;14.00;1.00;;;;;;8390818;28;20234;-69
2022/09/21 13:41:42;;;;;;;2.00;1.30;;;14.30;1.00;;;;;;8390092;28;20226;-69
2022/09/21 13:45:50;;;;;;;1.77;1.33;;;14.60;99.90;;;;;;8385411;28;20197;-70
2022/09/21 13:49:52;;;;;;;3.37;0.80;;;14.80;1.00;;;;;;8385123;28;20251;-69
2022/09/21 13:53:56;;;;;;;0.93;0.70;;;15.10;99.90;;;;;;8385103;28;20327;-70
2022/09/21 13:58:19;;;;;;;0.90;0.70;;;15.20;99.90;;;;;;8388543;28;20254;-69
2022/09/21 14:02:36;;;;;;;1.07;0.40;;;15.10;99.90;;;;;;8382890;28;20217;-68
2022/09/21 14:06:44;;;;;;;1.43;0.53;;;13.60;1.00;;;;;;8385953;28;20274;-68
2022/09/21 14:10:54;;;;;;;0.73;0.40;;;12.20;99.90;;;;;;8383170;28;20190;-68
2022/09/21 14:15:18;;;;;;;0.70;0.40;;;11.40;99.90;;;;;;8382846;28;20213;-70
2022/09/21 14:19:19;;;;;;;3.67;0.60;;;10.90;53.10;;;;;;8386218;28;20195;-67
2022/09/21 14:23:22;;;;;;;1.33;0.40;;;10.70;99.90;;;;;;8385640;28;20231;-67
2022/09/21 14:27:44;;;;;;;2.03;0.40;;;10.80;99.90;;;;;;8382426;28;20231;-67
2022/09/21 14:31:47;;;;;;;0.47;0.40;;;10.90;99.90;;;;;;8384698;28;20190;-67
2022/09/21 14:35:51;;;;;;;2.53;0.50;;;11.20;3.10;;;;;;8386638;28;20182;-67
2022/09/21 14:39:52;;;;;;;1.13;0.40;;;11.30;99.90;;;;;;8376058;28;20195;-67
2022/09/21 14:43:55;;;;;;;0.70;0.43;;;11.30;2.60;;;;;;8385752;28;20201;-67
2022/09/21 14:48:06;;;;;;;0.97;0.40;;;11.30;99.90;;;;;;8383958;28;20192;-67
2022/09/21 14:52:16;;;;;;;0.63;0.60;;;11.30;83.30;;;;;;8386303;28;20200;-67
2022/09/21 14:56:32;;;;;;;1.57;0.60;;;11.30;99.90;;;;;;8377283;28;20192;-68
2022/09/21 15:00:42;;;;;;;0.80;0.60;;;11.30;99.90;;;;;;8383433;28;20193;-67
2022/09/21 15:05:08;;;;;;;4.00;1.13;;;11.20;99.90;;;;;;8384855;28;20292;-68
2022/09/21 15:14:05;;;;;;;0.70;0.50;;;11.20;99.90;;;;;;8383844;28;20273;-68
2022/09/21 15:18:19;;;;;;;0.67;0.60;;;11.10;1.00;;;;;;8383259;28;20181;-68
2022/09/21 15:22:23;;;;;;;1.30;0.70;;;11.20;26.20;;;;;;8380783;28;20172;-71
2022/09/21 15:26:28;;;;;;;2.60;0.77;;;11.30;99.90;;;;;;8380646;28;20192;-68
2022/09/21 15:30:32;;;;;;;0.90;0.60;;;11.50;1.00;;;;;;8383706;28;20189;-68
2022/09/21 15:34:32;;;;;;;0.90;0.50;;;11.50;1.00;;;;;;8380094;28;20212;-68
2022/09/21 15:38:35;;;;;;;0.80;0.60;;;11.70;99.90;;;;;;8396767;28;20226;-69
2022/09/21 15:42:58;;;;;;;2.20;0.60;;;11.90;1.00;;;;;;8382254;28;20181;-69
2022/09/21 15:47:01;;;;;;;0.90;0.67;;;12.00;99.90;;;;;;8380729;28;20772;-69
2022/09/21 15:51:08;;;;;;;1.40;1.00;;;12.20;99.90;;;;;;8382508;28;20192;-69
2022/09/21 15:55:20;;;;;;;2.00;1.30;;;12.30;1.00;;;;;;8377127;28;20223;-68
2022/09/21 15:59:21;;;;;;;2.27;0.90;;;12.30;1.00;;;;;;8383122;28;20294;-68
2022/09/21 16:03:24;;;;;;;4.90;1.27;;;12.10;99.90;;;;;;8380700;28;20188;-68
2022/09/21 16:07:25;;;;;;;1.50;1.20;;;12.00;1.00;;;;;;8379796;28;20276;-68
2022/09/21 16:11:26;;;;;;;2.03;1.30;;;11.90;1.00;;;;;;8382957;28;20211;-69
2022/09/21 16:15:30;;;;;;;2.00;1.10;;;11.70;99.90;;;;;;8379150;28;20295;-67
2022/09/21 16:20:02;;;;;;;1.50;0.97;;;11.60;99.90;;;;;;8381635;28;20188;-67
2022/09/21 16:24:11;;;;;;;1.53;1.20;;;11.60;58.50;;;;;;8396408;28;20217;-67
2022/09/21 16:28:18;;;;;;;1.30;0.87;;;11.50;99.90;;;;;;8383066;28;20235;-67
2022/09/21 16:32:18;;;;;;;3.10;1.00;;;11.40;1.00;;;;;;8381908;28;20204;-69
2022/09/21 16:36:21;;;;;;;2.17;1.20;;;11.20;99.90;;;;;;8379254;28;20279;-67
2022/09/21 16:40:22;;;;;;;2.07;1.40;;;11.00;99.90;;;;;;8379763;28;20204;-67
2022/09/21 16:44:24;;;;;;;2.13;1.70;;;10.80;99.90;;;;;;8380702;28;20198;-67
2022/09/21 16:48:25;;;;;;;1.43;1.10;;;10.60;99.90;;;;;;8379411;28;20242;-67
2022/09/21 16:52:29;;;;;;;1.97;1.70;;;10.40;99.90;;;;;;8380848;28;20282;-67
2022/09/21 16:56:31;;;;;;;1.90;1.30;;;10.20;99.90;;;;;;8381072;28;20183;-67
2022/09/21 17:00:39;;;;;;;8.37;1.67;;;10.10;99.90;;;;;;8379060;28;20186;-67
2022/09/21 17:04:40;;;;;;;2.43;1.60;;;10.00;99.90;;;;;;8383421;28;20186;-68
2022/09/21 17:08:41;;;;;;;2.07;1.80;;;9.80;99.90;;;;;;8386712;28;20191;-68
2022/09/21 17:12:42;;;;;;;1.93;1.30;;;9.70;99.90;;;;;;8385553;28;20248;-67
2022/09/21 17:16:56;;;;;;;3.10;1.50;;;9.60;99.90;;;;;;8386406;28;20208;-68
2022/09/21 17:20:56;;;;;;;3.23;1.53;;;9.50;99.90;;;;;;8387407;28;20284;-67
2022/09/21 17:24:57;;;;;;;2.03;1.43;;;9.40;99.90;;;;;;8383737;28;20190;-68
2022/09/21 17:28:58;;;;;;;1.70;1.20;;;9.40;99.90;;;;;;8387406;28;20198;-68
2022/09/21 17:33:00;;;;;;;2.93;1.50;;;9.20;99.90;;;;;;8384101;28;20216;-68
2022/09/21 17:37:01;;;;;;;2.00;1.60;;;9.20;99.90;;;;;;8387513;28;20185;-69
2022/09/21 17:41:24;;;;;;;3.83;2.37;;;9.20;99.90;;;;;;8380273;28;20207;-69
2022/09/21 17:45:36;;;;;;;4.63;2.77;;;9.20;99.90;;;;;;8400328;28;20192;-69
2022/09/21 17:49:39;;;;;;;2.63;1.53;;;9.30;99.90;;;;;;8384854;28;20201;-68
2022/09/21 17:53:40;;;;;;;4.23;1.87;;;9.40;99.90;;;;;;8384583;28;20273;-68
2022/09/21 17:58:19;;;;;;;2.07;1.70;;;9.50;99.90;;;;;;8385198;28;20283;-68
2022/09/21 18:02:24;;;;;;;2.17;1.30;;;9.50;99.90;;;;;;8399408;28;20181;-67
2022/09/21 18:06:26;;;;;;;2.00;1.57;;;9.60;99.90;;;;;;8378241;28;20270;-68
2022/09/21 18:10:29;;;;;;;4.50;1.93;;;9.80;99.90;;;;;;8381601;28;20231;-67
2022/09/21 18:14:39;;;;;;;2.10;1.90;;;9.90;99.90;;;;;;8382499;28;20296;-68
2022/09/21 18:18:45;;;;;;;2.60;1.77;;;9.90;99.90;;;;;;8382950;28;20182;-67
2022/09/21 18:22:57;;;;;;;2.50;1.60;;;9.90;99.90;;;;;;8372452;28;20189;-67
2022/09/21 18:26:59;;;;;;;2.40;1.60;;;10.00;99.90;;;;;;8387930;28;20409;-67
2022/09/21 18:31:15;;;;;;;2.77;1.70;;;9.90;99.90;;;;;;8383375;28;20336;-68
2022/09/21 18:35:38;;;;;;;2.40;1.80;;;9.90;99.90;;;;;;8384141;28;20198;-67
2022/09/21 18:40:07;;;;;;;2.17;1.47;;;9.90;99.90;;;;;;8384332;28;20188;-67
2022/09/21 18:44:21;;;;;;;3.40;1.90;;;9.90;99.90;;;;;;8378688;28;20257;-67
2022/09/21 18:48:31;;;;;;;2.53;1.70;;;9.90;99.90;;;;;;8381871;28;20189;-67
2022/09/21 18:52:35;;;;;;;2.97;1.73;;;9.90;99.90;;;;;;8398768;28;20199;-68
2022/09/21 18:56:38;;;;;;;3.23;1.57;;;9.80;99.90;;;;;;8381018;28;20185;-67
2022/09/21 19:00:39;;;;;;;2.90;1.73;;;9.80;99.90;;;;;;8381256;28;20178;-68
2022/09/21 19:04:44;;;;;;;2.17;1.40;;;9.70;99.90;;;;;;8384432;28;20268;-67
2022/09/21 19:09:14;;;;;;;2.63;1.90;;;9.60;99.90;;;;;;8383104;28;20183;-67
2022/09/21 19:13:57;;;;;;;3.00;1.80;;;9.50;99.90;;;;;;8360503;28;20242;-67
2022/09/21 19:18:23;;;;;;;2.27;1.57;;;9.50;99.90;;;;;;8378363;28;20193;-68
2022/09/21 19:23:03;;;;;;;1.80;1.53;;;9.30;99.90;;;;;;8383015;28;20251;-67
2022/09/21 19:27:10;;;;;;;2.17;1.80;;;9.20;99.90;;;;;;8380190;28;20209;-68
2022/09/21 19:31:13;;;;;;;3.07;2.13;;;9.10;99.90;;;;;;8374673;28;20196;-68
2022/09/21 19:35:19;;;;;;;2.97;2.30;;;9.00;99.90;;;;;;8381778;28;20262;-67
2022/09/21 19:39:20;;;;;;;3.07;2.50;;;9.00;99.90;;;;;;8381471;28;20181;-68
2022/09/21 19:43:31;;;;;;;5.07;2.10;;;8.90;99.90;;;;;;8381770;28;20197;-68
2022/09/21 19:47:51;;;;;;;2.30;1.70;;;8.90;99.90;;;;;;8380171;28;20241;-69
2022/09/21 19:51:55;;;;;;;3.10;2.00;;;9.00;99.90;;;;;;8378585;28;20250;-68
2022/09/21 20:00:20;;;;;;;2.63;1.83;;;9.00;99.90;;;;;;8379658;28;20226;-68
2022/09/21 20:04:57;;;;;;;3.67;1.70;;;9.00;99.90;;;;;;8378494;28;20252;-68
2022/09/21 20:09:16;;;;;;;2.50;2.00;;;9.00;99.90;;;;;;8379533;28;20250;-68
2022/09/21 20:13:30;;;;;;;3.57;2.13;;;9.00;99.90;;;;;;8380025;28;20217;-68
2022/09/21 20:17:39;;;;;;;2.47;2.03;;;8.90;99.90;;;;;;8374213;28;20185;-68
2022/09/21 20:21:43;;;;;;;2.93;2.23;;;8.90;99.90;;;;;;8372007;28;20189;-68
2022/09/21 20:25:59;;;;;;;3.30;2.23;;;8.80;99.90;;;;;;8378738;28;20308;-68
2022/09/21 20:30:07;;;;;;;3.67;2.80;;;8.80;99.90;;;;;;8380165;28;20181;-68
2022/09/21 20:34:09;;;;;;;6.03;3.73;;;8.80;99.90;;;;;;8373389;28;20354;-68
2022/09/21 20:38:10;;;;;;;2.90;2.13;;;8.80;99.90;;;;;;8379842;28;20249;-67
2022/09/21 20:42:22;;;;;;;3.53;2.50;;;8.60;99.90;;;;;;8379946;28;20180;-67
2022/09/21 20:46:24;;;;;;;3.03;2.33;;;8.50;99.90;;;;;;8380507;28;20189;-67
2022/09/21 20:50:25;;;;;;;2.63;2.13;;;8.40;99.90;;;;;;8378662;28;20219;-68
2022/09/21 20:54:26;;;;;;;3.37;2.43;;;8.30;99.90;;;;;;8381451;28;20289;-68
2022/09/21 20:58:28;;;;;;;3.20;2.37;;;8.20;99.90;;;;;;8379411;28;20217;-68
2022/09/21 21:02:29;;;;;;;3.63;2.30;;;8.20;99.90;;;;;;8376035;28;20284;-67
2022/09/21 21:06:30;;;;;;;2.53;2.00;;;8.20;99.90;;;;;;8374968;28;20196;-68
2022/09/21 21:10:31;;;;;;;2.77;2.17;;;8.20;99.90;;;;;;8380328;28;20185;-67
2022/09/21 21:14:32;;;;;;;3.70;2.70;;;8.20;99.90;;;;;;8377500;28;20215;-67
2022/09/21 21:18:33;;;;;;;3.60;2.87;;;8.30;99.90;;;;;;8380475;28;20532;-67
2022/09/21 21:22:34;;;;;;;3.17;2.80;;;8.30;99.90;;;;;;8382974;28;20189;-69
2022/09/21 21:26:35;;;;;;;2.90;2.40;;;8.30;99.90;;;;;;8379061;28;20185;-67
2022/09/21 21:30:37;;;;;;;3.07;2.43;;;8.20;99.90;;;;;;8378105;28;20239;-68
2022/09/21 21:34:38;;;;;;;4.00;2.60;;;8.10;99.90;;;;;;8377998;28;20205;-67
2022/09/21 21:38:40;;;;;;;4.10;2.77;;;8.10;99.90;;;;;;8377300;28;20212;-68
2022/09/21 21:42:41;;;;;;;3.97;2.70;;;8.20;99.90;;;;;;8378794;28;20228;-67
2022/09/21 21:46:42;;;;;;;4.63;2.60;;;8.20;99.90;;;;;;8382381;28;20199;-67
2022/09/21 21:50:43;;;;;;;8.50;2.80;;;8.10;99.90;;;;;;8386336;28;20223;-68
2022/09/21 21:54:44;;;;;;;2.93;2.20;;;8.00;99.90;;;;;;8379613;28;20225;-67